Gregory, South Dakota
Current Conditions -  °F | °C
As of 2:53 PM on Saturday 22 Nov 2014 (Local Time) from KICR Reporting Station
Clear Clear  
Wind Chill: 62°   Ceiling: Unl
Heat Index: 62°   Visibility: 10mi
Dew Point: 29°   Wind: 17mph
Humidity: 29%   Direction: 220°SW
Pressure: 29.4"   Gusts: NA
Location:  43.23°N, 99.43°W
Report Text: KICR 222053Z AUTO 22015KT 10SM CLR 17/M02 A2940 RMK AO2 SLP958 T01671017 56033
Loading
Personal Weather Stations






























Interactive Weather Map New forecast layout! Learn more

10-Day Weather Forecast

Advertisements
Track Severe Weather on mobile